Blacksburg, VA (24060)

8:03 PM EST on February 10, 2016 (GMT -0500)
APRSWXNET | | Change Station
CLOSE
Current Station
Personal Weather Station
Location: Blacksburg, VA
Elevation: 2086 ft
Nearby Weather Stations
Active Advisory: Wind Chill Advisory Active Notice: Public Information Statement

Elev 2086 ft 37.24 °N, 80.42 °W | Updated 30 minutes ago

Overcast
Overcast
17 °F
Feels Like 17 °F
N
0
Wind Variable Wind from NNW
Gusts 0.0 mph

Today
High -- | Low -- °F
--% Chance of Precip.
Yesterday
High -- | Low -- °F
Precip. -- in
Pressure 29.93 in
Visibility 10.0 miles
Clouds Overcast 3500 ft
Windchill 17 °F
Dew Point 10 °F
Humidity 74%
Rainfall in
Snow Depth Not available.
7:16 AM 5:55 PM
Waxing Crescent, 8% visible
METAR KBCB 110055Z AUTO 29009G15KT 10SM OVC035 M07/M13 A2993 RMK AO2 T10751131
Pressure 29.93 in
Visibility 10.0 miles
Clouds Overcast 3500 ft
Windchill 17 °F
Dew Point 10 °F
Humidity 74%
Rainfall in
Snow Depth Not available.
7:16 AM 5:55 PM
Waxing Crescent, 8% visible
METAR KBCB 110055Z AUTO 29009G15KT 10SM OVC035 M07/M13 A2993 RMK AO2 T10751131

10-Day Weather Forecast

Almanac

Astronomy

Feb. 10, 2016 Rise Set
Actual Time
Civil Twilight
Nautical Twilight
Astronomical Twilight
Moon
Length of Visible Light
Length of Day
Tomorrow will be .
, % of the Moon is Illuminated

Today's Extremes

State Highs State Lows

Community

WunderPhotos

Upload Photos

1,891,956 photos uploaded!

WunderBlog® & News

Nearby

Air Quality

  Air Quality AQ Index Pollutant
Not available.

Snow Depth

Station Depth Elevation

Earthquake Activity

City Distance Mag. Time & Date
Minimum magnitude displayed is 2.5.

Coastal Water Temperatures

Place Temperature

Stations

Nearby Weather Stations

Station Location Temp. Windchill Dew Point Humidity Wind Precip. Elev Updated Type
                   

Watches & Warnings

Wind Chill Advisory
Issued: 12:54 PM EST Feb. 10, 2016 – National Weather Service

... Wind Chill Advisory remains in effect from midnight tonight to
10 am EST Thursday...

* locations... along a west of Blue Ridge mountains.

* Hazard types... wind chill readings.

* Wind chill readings... less than 5 degrees below zero.

* Timing... tonight into Thursday morning.

* Impacts... wind chill values of less than 5 degrees below zero
will make it dangerous to be outside.

* Winds... northwest winds 10 to 20 mph with gusts up to 35 mph.

* Temperatures... lows tonight from 7 to the teens.

Precautionary/preparedness actions...

A Wind Chill Advisory means that very cold air and strong winds
will combine to generate low wind chills. This will result in
frost bite and lead to hypothermia if precautions are not taken.
If you must venture outdoors... make sure you wear a hat and
gloves.



Rcs